Time;durP1;ratioP1;P1;durP2;ratioP2;P2;SDS_P1;SDS_P2;PMS_P1;PMS_P2;Temp;Humidity;BMP_temperature;BMP_pressure;BME280_temperature;BME280_humidity;BME280_pressure;Samples;Min_cycle;Max_cycle;Signal;HPM_P1;HPM_P2
2023/08/11 00:00:13;;;;;;;;;;;14.20;99.90;;;;;;5051388;28;20039;-87
2023/08/11 00:02:39;;;;;;;1.20;0.70;;;14.20;99.90;;;;;;5052833;28;19908;-88
2023/08/11 00:05:05;;;;;;;;;;;14.20;99.90;;;;;;5053092;28;20029;-89
2023/08/11 00:07:30;;;;;;;2.13;0.70;;;14.10;99.90;;;;;;5051843;28;19904;-89
2023/08/11 00:09:56;;;;;;;;;;;14.10;99.90;;;;;;5052212;28;20033;-89
2023/08/11 00:12:22;;;;;;;2.25;0.57;;;14.10;99.90;;;;;;5053044;28;19908;-89
2023/08/11 00:14:48;;;;;;;;;;;14.10;99.90;;;;;;5053380;28;20025;-89
2023/08/11 00:17:14;;;;;;;3.95;0.60;;;14.10;99.90;;;;;;5052992;28;19966;-89
2023/08/11 00:19:40;;;;;;;2.22;0.60;;;14.00;99.90;;;;;;5052876;28;20029;-88
2023/08/11 00:22:06;;;;;;;2.33;0.90;;;14.00;99.90;;;;;;5053371;28;20024;-90
2023/08/11 00:24:33;;;;;;;;;;;14.00;99.90;;;;;;5052136;28;20567;-88
2023/08/11 00:27:01;;;;;;;1.57;0.50;;;14.00;99.90;;;;;;5052958;28;19904;-90
2023/08/11 00:29:26;;;;;;;3.05;0.80;;;14.00;99.90;;;;;;5051582;28;20271;-89
2023/08/11 00:31:53;;;;;;;;;;;14.00;99.90;;;;;;5053180;28;20037;-90
2023/08/11 00:34:19;;;;;;;3.87;0.80;;;14.00;99.90;;;;;;5051647;28;19904;-88
2023/08/11 00:36:44;;;;;;;;;;;13.90;99.90;;;;;;5053345;28;20524;-88
2023/08/11 00:39:10;;;;;;;1.73;0.80;;;14.00;99.90;;;;;;5052202;28;19915;-88
2023/08/11 00:41:35;;;;;;;;;;;13.90;99.90;;;;;;5051559;28;20033;-89
2023/08/11 00:44:01;;;;;;;4.30;0.82;;;13.90;99.90;;;;;;5052755;28;19908;-89
2023/08/11 00:46:27;;;;;;;1.45;0.80;;;13.90;99.90;;;;;;5052976;28;20071;-87
2023/08/11 00:48:53;;;;;;;;;;;13.90;99.90;;;;;;5051602;28;20021;-87
2023/08/11 00:51:22;;;;;;;1.42;0.55;;;13.90;99.90;;;;;;5052178;28;19912;-88
2023/08/11 00:53:51;;;;;;;1.23;0.65;;;13.90;99.90;;;;;;5051653;28;20057;-91
2023/08/11 00:56:22;;;;;;;2.10;0.77;;;13.80;99.90;;;;;;5052355;28;20095;-89
2023/08/11 00:58:49;;;;;;;3.72;0.80;;;13.80;99.90;;;;;;5051232;28;20057;-89
2023/08/11 01:01:15;;;;;;;1.73;0.57;;;13.90;99.90;;;;;;5051575;28;20036;-89
2023/08/11 01:03:43;;;;;;;1.90;0.80;;;13.80;99.90;;;;;;5052836;28;20025;-88
2023/08/11 01:06:25;;;;;;;1.55;0.80;;;13.80;99.90;;;;;;5055114;28;20029;-90
2023/08/11 01:09:05;;;;;;;1.70;1.00;;;13.80;99.90;;;;;;5051130;28;20083;-89
2023/08/11 01:11:38;;;;;;;2.20;0.43;;;13.90;99.90;;;;;;5052180;28;20446;-88
2023/08/11 01:14:17;;;;;;;1.98;0.73;;;13.90;99.90;;;;;;5052157;28;20067;-88
2023/08/11 01:16:47;;;;;;;2.78;0.82;;;13.90;99.90;;;;;;5049636;28;20041;-89
2023/08/11 01:19:37;;;;;;;1.60;0.60;;;13.90;99.90;;;;;;5052233;28;20045;-87
2023/08/11 01:22:10;;;;;;;3.63;1.08;;;13.90;99.90;;;;;;5051041;28;20531;-88
2023/08/11 01:24:37;;;;;;;6.35;1.00;;;13.90;99.90;;;;;;5051881;28;20029;-86
2023/08/11 01:27:03;;;;;;;1.40;0.68;;;13.90;99.90;;;;;;5051641;28;20090;-88
2023/08/11 01:29:29;;;;;;;1.70;0.90;;;13.90;99.90;;;;;;5051839;28;20033;-89
2023/08/11 01:31:54;;;;;;;;;;;13.90;99.90;;;;;;5051309;28;20029;-87
2023/08/11 01:34:21;;;;;;;2.35;0.90;;;13.80;99.90;;;;;;5051399;28;19905;-89
2023/08/11 01:36:50;;;;;;;2.25;0.73;;;13.80;99.90;;;;;;5051856;28;20055;-89
2023/08/11 01:39:16;;;;;;;2.15;0.80;;;13.80;99.90;;;;;;5051356;28;20040;-89
2023/08/11 01:41:41;;;;;;;;;;;13.80;99.90;;;;;;5051331;28;20482;-89
2023/08/11 01:44:08;;;;;;;2.95;0.90;;;13.80;99.90;;;;;;5051931;28;19905;-90
2023/08/11 01:46:34;;;;;;;2.50;0.80;;;13.70;99.90;;;;;;5050647;28;20065;-89
2023/08/11 01:49:01;;;;;;;3.45;1.10;;;13.70;99.90;;;;;;5050962;28;20021;-89
2023/08/11 01:51:27;;;;;;;4.22;1.27;;;13.70;99.90;;;;;;5051738;28;20044;-89
2023/08/11 01:53:53;;;;;;;;;;;13.70;99.90;;;;;;5054742;28;20025;-90
2023/08/11 01:56:20;;;;;;;1.55;0.82;;;13.60;99.90;;;;;;5055873;28;19911;-89
2023/08/11 01:58:45;;;;;;;3.33;1.48;;;13.60;99.90;;;;;;5055220;28;20017;-88
2023/08/11 02:01:13;;;;;;;;;;;13.60;99.90;;;;;;5056266;28;20083;-89
2023/08/11 02:03:39;;;;;;;3.15;1.35;;;13.60;99.90;;;;;;5055627;28;19905;-89
2023/08/11 02:06:05;;;;;;;2.28;1.15;;;13.70;99.90;;;;;;5054331;28;20086;-90
2023/08/11 02:08:35;;;;;;;2.88;1.20;;;13.70;99.90;;;;;;5055499;28;20508;-90
2023/08/11 02:11:03;;;;;;;1.80;0.90;;;13.60;99.90;;;;;;5054399;28;20025;-90
2023/08/11 02:13:28;;;;;;;1.83;1.15;;;13.60;99.90;;;;;;5055472;28;20045;-91
2023/08/11 02:15:54;;;;;;;;;;;13.60;99.90;;;;;;5055704;28;20520;-91
2023/08/11 02:18:20;;;;;;;2.63;1.02;;;13.60;99.90;;;;;;5053817;28;20259;-89
2023/08/11 02:20:45;;;;;;;7.95;1.25;;;13.50;99.90;;;;;;5053642;28;20115;-89
2023/08/11 02:23:11;;;;;;;;;;;13.60;99.90;;;;;;5054919;28;20017;-89
2023/08/11 02:25:38;;;;;;;1.80;0.88;;;13.60;99.90;;;;;;5053540;28;19912;-90
2023/08/11 02:28:04;;;;;;;1.60;0.77;;;13.50;99.90;;;;;;5053611;28;20024;-88
2023/08/11 02:30:30;;;;;;;;;;;13.50;99.90;;;;;;5053817;28;20453;-88
2023/08/11 02:32:56;;;;;;;3.13;1.17;;;13.50;99.90;;;;;;5054716;28;19904;-88
2023/08/11 02:35:22;;;;;;;3.40;1.20;;;13.50;99.90;;;;;;5054592;28;20025;-91
2023/08/11 02:37:49;;;;;;;5.93;0.93;;;13.40;99.90;;;;;;5054968;28;20021;-88
2023/08/11 02:40:15;;;;;;;4.20;1.10;;;13.50;99.90;;;;;;5059976;28;20079;-89
2023/08/11 02:42:48;;;;;;;2.28;1.10;;;13.40;99.90;;;;;;5054699;28;20033;-90
2023/08/11 02:45:15;;;;;;;1.42;0.77;;;13.40;99.90;;;;;;5054411;28;20033;-90
2023/08/11 02:47:41;;;;;;;1.27;0.80;;;13.40;99.90;;;;;;5054087;28;20025;-91
2023/08/11 02:50:08;;;;;;;3.33;1.40;;;13.40;99.90;;;;;;5054491;28;20100;-89
2023/08/11 02:52:34;;;;;;;1.70;0.95;;;13.40;99.90;;;;;;5053205;28;20036;-91
2023/08/11 02:55:01;;;;;;;4.28;1.00;;;13.50;99.90;;;;;;5054441;28;20017;-91
2023/08/11 02:57:26;;;;;;;2.75;1.30;;;13.40;99.90;;;;;;5053262;28;20021;-90
2023/08/11 02:59:52;;;;;;;;;;;13.40;99.90;;;;;;5053582;28;20056;-88
2023/08/11 03:02:17;;;;;;;3.95;1.30;;;13.40;99.90;;;;;;5054076;28;20484;-90
2023/08/11 03:04:43;;;;;;;;;;;13.40;99.90;;;;;;5054250;28;20108;-90
2023/08/11 03:07:12;;;;;;;5.82;1.45;;;13.40;99.90;;;;;;5054171;28;20389;-90
2023/08/11 03:09:39;;;;;;;3.78;1.02;;;13.40;99.90;;;;;;5053037;28;20052;-91
2023/08/11 03:12:05;;;;;;;2.55;1.58;;;13.40;99.90;;;;;;5052823;28;20505;-91
2023/08/11 03:14:31;;;;;;;2.33;1.25;;;13.40;99.90;;;;;;5054479;28;20021;-90
2023/08/11 03:16:57;;;;;;;;;;;13.40;99.90;;;;;;5053514;28;20021;-91
2023/08/11 03:19:22;;;;;;;2.80;1.30;;;13.40;99.90;;;;;;5054053;28;19966;-89
2023/08/11 03:21:48;;;;;;;;;;;13.30;99.90;;;;;;5054388;28;20029;-90
2023/08/11 03:24:14;;;;;;;6.10;1.60;;;13.30;99.90;;;;;;5054040;28;19909;-91
2023/08/11 03:26:40;;;;;;;4.90;1.33;;;13.20;99.90;;;;;;5053030;28;20067;-87
2023/08/11 03:29:05;;;;;;;;;;;13.20;99.90;;;;;;5054279;28;20438;-90
2023/08/11 03:31:32;;;;;;;3.65;1.50;;;13.20;99.90;;;;;;5044901;28;19909;-89
2023/08/11 03:33:58;;;;;;;4.50;1.80;;;13.20;99.90;;;;;;5033021;28;20493;-88
2023/08/11 03:36:25;;;;;;;6.00;1.00;;;13.20;99.90;;;;;;5033820;28;20026;-88
2023/08/11 03:38:51;;;;;;;3.83;1.55;;;13.10;99.90;;;;;;5032100;28;20029;-89
2023/08/11 03:41:17;;;;;;;5.07;1.27;;;13.20;99.90;;;;;;5030804;28;20037;-88
2023/08/11 03:43:42;;;;;;;4.25;1.40;;;13.20;99.90;;;;;;5032416;28;20022;-89
2023/08/11 03:46:08;;;;;;;;;;;13.20;99.90;;;;;;5039545;28;20110;-88
2023/08/11 03:48:34;;;;;;;3.92;1.73;;;13.30;99.90;;;;;;5032579;28;20016;-90
2023/08/11 03:51:01;;;;;;;;;;;13.30;99.90;;;;;;5032875;28;20043;-88
2023/08/11 03:53:26;;;;;;;4.18;1.50;;;13.30;99.90;;;;;;5033678;28;19936;-89
2023/08/11 03:55:52;;;;;;;;;;;13.30;99.90;;;;;;5033050;28;20402;-88
2023/08/11 03:58:18;;;;;;;2.15;1.20;;;13.30;99.90;;;;;;5033353;28;19932;-88
2023/08/11 04:00:43;;;;;;;;;;;13.30;99.90;;;;;;5032189;28;20029;-87
2023/08/11 04:03:09;;;;;;;6.40;1.40;;;13.40;99.90;;;;;;5032935;28;19905;-88
2023/08/11 04:05:35;;;;;;;5.20;1.67;;;13.40;99.90;;;;;;5032893;28;20069;-89
2023/08/11 04:08:04;;;;;;;2.80;1.50;;;13.40;99.90;;;;;;5032919;28;20072;-86
2023/08/11 04:10:30;;;;;;;6.28;2.05;;;13.50;99.90;;;;;;5032118;28;20025;-89
2023/08/11 04:12:56;;;;;;;2.95;1.30;;;13.60;99.90;;;;;;5033498;28;20410;-87
2023/08/11 04:15:21;;;;;;;;;;;13.60;99.90;;;;;;5037814;28;20025;-88
2023/08/11 04:17:47;;;;;;;3.70;1.50;;;13.70;99.90;;;;;;5031933;28;19996;-87
2023/08/11 04:20:13;;;;;;;;;;;13.70;99.90;;;;;;5031909;28;20486;-87
2023/08/11 04:22:40;;;;;;;9.85;1.40;;;13.80;99.90;;;;;;5033281;28;19911;-88
2023/08/11 04:25:09;;;;;;;3.95;1.60;;;14.00;99.90;;;;;;5031326;28;20033;-88
2023/08/11 04:27:37;;;;;;;5.30;1.55;;;14.00;99.90;;;;;;5032710;28;20022;-89
2023/08/11 04:30:03;;;;;;;3.92;1.58;;;14.10;99.90;;;;;;5033412;28;20029;-88
2023/08/11 04:32:29;;;;;;;3.58;1.52;;;14.20;99.90;;;;;;5032404;28;20032;-89
2023/08/11 04:34:55;;;;;;;;;;;14.30;99.90;;;;;;5032793;28;20025;-88
2023/08/11 04:37:20;;;;;;;2.40;1.08;;;14.40;99.90;;;;;;5031754;28;19905;-89
2023/08/11 04:39:46;;;;;;;;;;;14.50;99.90;;;;;;5032017;28;20022;-88
2023/08/11 04:42:12;;;;;;;4.25;1.60;;;14.60;99.90;;;;;;5032038;28;19905;-87
2023/08/11 04:44:38;;;;;;;2.25;1.42;;;14.70;99.90;;;;;;5031497;28;20068;-89
2023/08/11 04:47:04;;;;;;;;;;;14.80;99.90;;;;;;5031526;28;20069;-88
2023/08/11 04:49:32;;;;;;;4.25;1.25;;;14.90;99.90;;;;;;5031616;28;19912;-90
2023/08/11 04:51:58;;;;;;;2.67;1.13;;;15.00;99.90;;;;;;5031363;28;20022;-89
2023/08/11 04:54:24;;;;;;;6.28;1.77;;;15.10;99.90;;;;;;5031143;28;20544;-89
2023/08/11 04:56:50;;;;;;;;;;;15.30;99.90;;;;;;5032870;28;20033;-87
2023/08/11 04:59:17;;;;;;;2.67;1.43;;;15.40;99.90;;;;;;5030948;28;19916;-87
2023/08/11 05:01:43;;;;;;;6.60;1.98;;;15.50;99.90;;;;;;5031756;28;20034;-89
2023/08/11 05:04:09;;;;;;;3.15;1.58;;;15.60;99.90;;;;;;5031106;28;20505;-88
2023/08/11 05:06:35;;;;;;;6.05;1.35;;;15.80;99.90;;;;;;5032255;28;20038;-88
2023/08/11 05:09:02;;;;;;;7.25;1.63;;;15.90;99.90;;;;;;5030701;28;20022;-87
2023/08/11 05:11:28;;;;;;;4.90;1.58;;;16.00;99.90;;;;;;5032234;28;20021;-87
2023/08/11 05:13:54;;;;;;;2.78;1.35;;;16.20;99.90;;;;;;5031914;28;20049;-88
2023/08/11 05:16:20;;;;;;;2.58;1.40;;;16.30;99.90;;;;;;5032034;28;20033;-87
2023/08/11 05:18:46;;;;;;;5.97;1.73;;;16.50;99.90;;;;;;5030977;28;20356;-88
2023/08/11 05:21:15;;;;;;;4.10;1.40;;;16.60;99.90;;;;;;5031776;28;20048;-87
2023/08/11 05:23:41;;;;;;;2.85;1.30;;;16.80;99.90;;;;;;5030786;28;20083;-87
2023/08/11 05:26:06;;;;;;;5.35;1.50;;;17.10;99.90;;;;;;5031988;28;20037;-87
2023/08/11 05:28:32;;;;;;;1.95;1.10;;;17.50;99.90;;;;;;5034929;28;20029;-85
2023/08/11 05:30:57;;;;;;;4.88;1.25;;;18.10;99.90;;;;;;5033167;28;20052;-86
2023/08/11 05:33:27;;;;;;;6.18;1.45;;;18.50;99.90;;;;;;5033193;28;20030;-85
2023/08/11 05:35:52;;;;;;;4.68;1.50;;;18.80;99.90;;;;;;5034779;28;20028;-85
2023/08/11 05:38:22;;;;;;;2.50;1.30;;;19.10;99.90;;;;;;5035234;28;20026;-84
2023/08/11 05:40:48;;;;;;;7.00;1.75;;;19.40;99.90;;;;;;5034605;28;20414;-85
2023/08/11 05:43:14;;;;;;;4.38;1.30;;;19.80;99.90;;;;;;5035617;28;20049;-86
2023/08/11 05:45:40;;;;;;;3.40;1.50;;;20.10;99.90;;;;;;5035194;28;20045;-85
2023/08/11 05:48:06;;;;;;;2.42;1.15;;;20.30;99.90;;;;;;5036998;28;20021;-84
2023/08/11 05:50:32;;;;;;;3.72;1.60;;;20.50;99.90;;;;;;5034795;28;20029;-85
2023/08/11 05:52:57;;;;;;;2.30;1.20;;;20.80;99.90;;;;;;5035043;28;20060;-85
2023/08/11 05:55:23;;;;;;;4.07;2.03;;;21.10;99.90;;;;;;5033583;28;20060;-86
2023/08/11 05:57:49;;;;;;;2.03;1.45;;;21.20;99.90;;;;;;5034866;28;20508;-83
2023/08/11 06:00:18;;;;;;;5.30;1.73;;;21.30;97.80;;;;;;5035107;28;20547;-85
2023/08/11 06:02:47;;;;;;;3.47;1.52;;;21.50;95.80;;;;;;5034963;28;20038;-86
2023/08/11 06:05:12;;;;;;;3.25;1.70;;;21.70;94.60;;;;;;5034987;28;20029;-86
2023/08/11 06:07:39;;;;;;;3.35;2.00;;;22.00;93.30;;;;;;5033993;28;20037;-83
2023/08/11 06:10:06;;;;;;;3.08;1.85;;;22.50;91.50;;;;;;5032351;28;20452;-86
2023/08/11 06:12:31;;;;;;;3.20;1.85;;;23.20;88.70;;;;;;5030211;28;20092;-86
2023/08/11 06:14:57;;;;;;;5.30;1.73;;;23.70;84.80;;;;;;5033984;28;20056;-85
2023/08/11 06:17:23;;;;;;;5.68;1.70;;;24.40;81.00;;;;;;5032925;28;20029;-86
2023/08/11 06:19:49;;;;;;;4.40;1.33;;;25.00;76.10;;;;;;5033277;28;20029;-85
2023/08/11 06:22:14;;;;;;;2.97;1.60;;;25.80;69.60;;;;;;5034011;28;20064;-85
2023/08/11 06:24:40;;;;;;;4.20;1.27;;;26.60;62.10;;;;;;5034283;28;20032;-86
2023/08/11 06:27:06;;;;;;;2.63;1.58;;;27.40;59.60;;;;;;5034585;28;20053;-85
2023/08/11 06:29:32;;;;;;;9.85;1.58;;;28.40;57.20;;;;;;5032393;28;20037;-85
2023/08/11 06:31:57;;;;;;;2.30;1.02;;;29.20;55.40;;;;;;5033710;28;20037;-86
2023/08/11 06:34:23;;;;;;;2.10;1.15;;;29.70;53.30;;;;;;5033622;28;20024;-85
2023/08/11 06:36:49;;;;;;;2.65;1.55;;;30.20;49.90;;;;;;5032230;28;20026;-86
2023/08/11 06:39:15;;;;;;;2.70;0.95;;;30.70;48.70;;;;;;5031932;28;20060;-85
2023/08/11 06:41:41;;;;;;;2.33;1.40;;;31.00;47.60;;;;;;5031036;28;20025;-86
2023/08/11 06:44:07;;;;;;;2.35;1.08;;;31.00;47.40;;;;;;5033825;28;20082;-85
2023/08/11 06:46:33;;;;;;;3.33;1.20;;;31.00;45.40;;;;;;5034135;28;20348;-86
2023/08/11 06:48:59;;;;;;;2.22;1.40;;;31.00;45.70;;;;;;5031924;28;20044;-86
2023/08/11 06:51:25;;;;;;;13.82;1.40;;;31.30;43.80;;;;;;5033369;28;20025;-86
2023/08/11 06:53:51;;;;;;;4.18;1.80;;;31.50;43.50;;;;;;5031958;28;20029;-84
2023/08/11 06:56:16;;;;;;;5.35;1.48;;;31.30;43.60;;;;;;5031696;28;20486;-86
2023/08/11 06:58:42;;;;;;;4.03;1.38;;;31.50;42.60;;;;;;5033648;28;20025;-87
2023/08/11 07:01:08;;;;;;;2.40;1.17;;;31.80;41.70;;;;;;5035174;28;20022;-85
2023/08/11 07:03:33;;;;;;;2.35;1.25;;;31.80;41.60;;;;;;5032847;28;20936;-87
2023/08/11 07:06:01;;;;;;;2.47;1.20;;;31.90;42.00;;;;;;5033693;28;20109;-87
2023/08/11 07:08:26;;;;;;;5.07;1.85;;;32.00;42.50;;;;;;5030923;28;20071;-87
2023/08/11 07:10:52;;;;;;;1.95;1.63;;;31.60;41.40;;;;;;5033614;28;20025;-85
2023/08/11 07:13:18;;;;;;;3.67;1.60;;;31.80;41.70;;;;;;5031555;28;20046;-87
2023/08/11 07:15:43;;;;;;;3.63;1.40;;;31.90;41.20;;;;;;5031623;28;20088;-86
2023/08/11 07:18:10;;;;;;;2.08;1.13;;;32.30;40.70;;;;;;5031422;28;20748;-86
2023/08/11 07:20:43;;;;;;;3.15;1.38;;;32.30;41.80;;;;;;5033170;28;20033;-86
2023/08/11 07:23:09;;;;;;;1.88;1.08;;;32.30;41.10;;;;;;5032898;28;20037;-85
2023/08/11 07:25:35;;;;;;;4.10;1.38;;;32.10;41.30;;;;;;5029742;28;20053;-86
2023/08/11 07:28:01;;;;;;;2.85;1.25;;;32.30;40.40;;;;;;5032505;28;20494;-83
2023/08/11 07:30:30;;;;;;;2.60;1.40;;;32.40;39.20;;;;;;5030997;28;20029;-86
2023/08/11 07:32:56;;;;;;;2.47;1.38;;;32.40;39.30;;;;;;5030902;28;20041;-85
2023/08/11 07:35:22;;;;;;;2.72;1.50;;;32.60;38.80;;;;;;5030235;28;20057;-87
2023/08/11 07:37:48;;;;;;;3.20;1.42;;;32.70;38.90;;;;;;5031591;28;20029;-86
2023/08/11 07:40:13;;;;;;;1.60;0.95;;;32.80;38.20;;;;;;5031925;28;20037;-85
2023/08/11 07:42:39;;;;;;;10.95;1.65;;;33.00;38.50;;;;;;5032392;28;20032;-86
2023/08/11 07:45:05;;;;;;;2.78;1.40;;;33.40;38.70;;;;;;5033072;28;20450;-86
2023/08/11 07:47:31;;;;;;;3.53;1.40;;;33.50;36.30;;;;;;5032855;28;20033;-86
2023/08/11 07:49:57;;;;;;;2.47;1.20;;;32.80;36.30;;;;;;5031949;28;20026;-85
2023/08/11 07:52:22;;;;;;;2.50;1.45;;;32.70;38.70;;;;;;5030820;28;20486;-86
2023/08/11 07:54:48;;;;;;;10.27;1.20;;;32.80;38.80;;;;;;5030399;28;20025;-86
2023/08/11 07:57:13;;;;;;;3.72;1.35;;;32.90;38.80;;;;;;5032757;28;20050;-87
2023/08/11 07:59:39;;;;;;;2.00;1.05;;;33.50;37.70;;;;;;5032693;28;20030;-86
2023/08/11 08:02:05;;;;;;;2.63;1.30;;;33.40;37.60;;;;;;5031547;28;20429;-85
2023/08/11 08:04:30;;;;;;;2.25;1.40;;;33.70;36.80;;;;;;5032130;28;20402;-85
2023/08/11 08:06:57;;;;;;;1.88;1.13;;;33.60;37.20;;;;;;5032664;28;20478;-86
2023/08/11 08:09:22;;;;;;;6.18;1.42;;;33.80;35.30;;;;;;5032844;28;20498;-86
2023/08/11 08:11:48;;;;;;;2.33;1.25;;;33.40;37.10;;;;;;5029414;28;20060;-85
2023/08/11 08:14:14;;;;;;;2.30;1.33;;;33.20;37.60;;;;;;5041091;28;20033;-87
2023/08/11 08:16:47;;;;;;;4.80;1.40;;;33.00;37.40;;;;;;5035420;28;20094;-86
2023/08/11 08:19:14;;;;;;;2.90;1.20;;;33.20;37.20;;;;;;5043950;28;20022;-87
2023/08/11 08:21:41;;;;;;;3.22;1.40;;;32.30;36.90;;;;;;5046422;28;20481;-87
2023/08/11 08:24:07;;;;;;;3.75;1.70;;;31.00;38.10;;;;;;5051635;28;20111;-88
2023/08/11 08:26:34;;;;;;;4.47;1.67;;;30.10;41.00;;;;;;5041857;28;20048;-86
2023/08/11 08:29:00;;;;;;;3.85;1.48;;;29.30;43.10;;;;;;5039366;28;20025;-85
2023/08/11 08:31:27;;;;;;;3.60;1.83;;;28.80;44.80;;;;;;5031981;28;20094;-85
2023/08/11 08:33:53;;;;;;;3.10;1.52;;;28.70;45.60;;;;;;5032948;28;20029;-88
2023/08/11 08:36:19;;;;;;;5.93;1.27;;;29.40;44.90;;;;;;5035528;28;20021;-88
2023/08/11 08:38:44;;;;;;;3.75;1.17;;;30.30;42.70;;;;;;5031543;28;20033;-87
2023/08/11 08:41:12;;;;;;;3.28;1.65;;;30.80;41.20;;;;;;5034818;28;20025;-87
2023/08/11 08:43:37;;;;;;;3.80;1.60;;;30.90;40.50;;;;;;5039501;28;20029;-87
2023/08/11 08:46:04;;;;;;;3.53;1.35;;;31.40;40.80;;;;;;5043928;28;20022;-86
2023/08/11 08:48:39;;;;;;;3.22;1.00;;;31.20;40.20;;;;;;5047459;28;20107;-87
2023/08/11 08:51:07;;;;;;;3.45;1.48;;;30.40;40.80;;;;;;5051293;28;20033;-86
2023/08/11 08:53:33;;;;;;;4.18;1.55;;;29.60;41.40;;;;;;5032147;28;20033;-88
2023/08/11 08:56:04;;;;;;;2.42;1.58;;;29.30;42.70;;;;;;5042619;28;20030;-87
2023/08/11 08:58:30;;;;;;;7.13;1.45;;;29.80;43.50;;;;;;5033379;28;20398;-86
2023/08/11 09:00:58;;;;;;;2.72;1.50;;;30.80;42.10;;;;;;5032318;28;20017;-87
2023/08/11 09:03:26;;;;;;;6.32;1.80;;;31.60;39.70;;;;;;5035868;28;20017;-88
2023/08/11 09:05:52;;;;;;;3.28;1.40;;;32.30;37.60;;;;;;5049464;28;20014;-87
2023/08/11 09:08:18;;;;;;;5.25;1.50;;;32.10;37.10;;;;;;5054205;28;20025;-87
2023/08/11 09:10:43;;;;;;;4.97;1.58;;;32.70;37.20;;;;;;5051466;28;20021;-87
2023/08/11 09:13:09;;;;;;;2.92;1.25;;;33.30;37.70;;;;;;5054577;28;20049;-86
2023/08/11 09:15:35;;;;;;;2.13;1.20;;;34.10;36.20;;;;;;5054264;28;20047;-84
2023/08/11 09:18:00;;;;;;;2.65;1.13;;;34.60;35.90;;;;;;5055552;28;20079;-86
2023/08/11 09:20:26;;;;;;;7.95;1.55;;;34.70;34.80;;;;;;5054202;28;20060;-86
2023/08/11 09:22:52;;;;;;;5.07;1.50;;;35.00;35.30;;;;;;5054616;28;20386;-84
2023/08/11 09:25:18;;;;;;;8.75;1.58;;;35.30;34.20;;;;;;5053173;28;20055;-85
2023/08/11 09:27:50;;;;;;;3.45;1.50;;;35.50;34.10;;;;;;5053700;28;20442;-86
2023/08/11 09:30:15;;;;;;;2.45;1.45;;;35.50;34.10;;;;;;5055119;28;20066;-86
2023/08/11 09:32:48;;;;;;;2.60;1.42;;;34.70;32.80;;;;;;5054500;28;20092;-85
2023/08/11 09:35:13;;;;;;;3.40;1.90;;;33.10;34.90;;;;;;5055303;28;20070;-86
2023/08/11 09:37:42;;;;;;;2.00;1.60;;;32.10;37.40;;;;;;5054442;28;20195;-86
2023/08/11 09:40:08;;;;;;;7.32;1.27;;;31.90;38.10;;;;;;5053459;28;20036;-87
2023/08/11 09:42:34;;;;;;;3.53;1.77;;;31.90;38.40;;;;;;5055308;28;20025;-86
2023/08/11 09:45:00;;;;;;;4.57;1.70;;;32.40;38.50;;;;;;5053358;28;20031;-85
2023/08/11 09:47:28;;;;;;;2.90;1.48;;;33.30;38.00;;;;;;5054995;28;20036;-85
2023/08/11 09:49:54;;;;;;;2.55;1.20;;;33.70;38.30;;;;;;5053559;28;20029;-83
2023/08/11 09:52:20;;;;;;;5.07;1.50;;;34.10;37.50;;;;;;5053365;28;20021;-87
2023/08/11 09:54:48;;;;;;;4.00;1.70;;;33.90;36.40;;;;;;5053682;28;20463;-85
2023/08/11 09:57:14;;;;;;;4.03;1.50;;;34.10;36.50;;;;;;5054637;28;20040;-86
2023/08/11 09:59:44;;;;;;;1.73;1.50;;;34.20;35.70;;;;;;5055182;28;20028;-86
2023/08/11 10:02:16;;;;;;;6.68;1.50;;;33.50;36.00;;;;;;5053449;28;20083;-86
2023/08/11 10:04:46;;;;;;;2.85;1.33;;;33.20;36.50;;;;;;5053251;28;20464;-85
2023/08/11 10:07:18;;;;;;;4.13;1.60;;;32.70;37.10;;;;;;5054695;28;20105;-86
2023/08/11 10:09:45;;;;;;;2.78;1.40;;;31.90;38.30;;;;;;5054909;28;20044;-86
2023/08/11 10:12:12;;;;;;;2.35;1.52;;;31.20;38.50;;;;;;5053637;28;20497;-84
2023/08/11 10:14:39;;;;;;;2.60;1.55;;;30.50;39.60;;;;;;5053475;28;20406;-85
2023/08/11 10:17:06;;;;;;;7.25;1.58;;;30.00;40.30;;;;;;5053541;28;20037;-86
2023/08/11 10:19:32;;;;;;;7.05;1.30;;;29.50;41.50;;;;;;5054222;28;20025;-86
2023/08/11 10:21:58;;;;;;;2.47;1.17;;;28.80;41.90;;;;;;5054926;28;20054;-85
2023/08/11 10:24:25;;;;;;;2.55;1.58;;;28.10;43.80;;;;;;5054868;28;20108;-86
2023/08/11 10:26:51;;;;;;;2.72;1.55;;;27.60;44.50;;;;;;5054586;28;20462;-86
2023/08/11 10:29:18;;;;;;;2.42;1.40;;;27.20;45.40;;;;;;5060212;28;20025;-86
2023/08/11 10:31:56;;;;;;;3.17;1.35;;;27.00;44.60;;;;;;5058341;28;20738;-86
2023/08/11 10:34:23;;;;;;;3.83;1.83;;;26.90;45.30;;;;;;5053439;28;20083;-84
2023/08/11 10:36:49;;;;;;;3.83;1.17;;;27.20;44.40;;;;;;5054243;28;20037;-85
2023/08/11 10:39:18;;;;;;;3.80;1.65;;;27.30;45.60;;;;;;5053012;28;20025;-85
2023/08/11 10:41:45;;;;;;;7.43;1.38;;;27.40;44.70;;;;;;5054209;28;20029;-85
2023/08/11 10:44:11;;;;;;;3.25;1.85;;;27.60;44.60;;;;;;5054334;28;20044;-85
2023/08/11 10:46:38;;;;;;;2.30;1.40;;;27.70;44.00;;;;;;5053749;28;20493;-83
2023/08/11 10:49:03;;;;;;;2.53;1.60;;;27.50;45.00;;;;;;5037995;28;20513;-86
2023/08/11 10:51:34;;;;;;;2.08;1.02;;;27.40;45.60;;;;;;5033974;28;20105;-85
2023/08/11 10:54:11;;;;;;;2.33;1.33;;;27.50;45.70;;;;;;5032882;28;20097;-85
2023/08/11 10:56:38;;;;;;;1.95;1.10;;;27.70;45.50;;;;;;5033739;28;20033;-84
2023/08/11 10:59:08;;;;;;;2.65;1.17;;;27.80;45.20;;;;;;5031899;28;20022;-84
2023/08/11 11:01:36;;;;;;;2.50;1.20;;;27.80;45.10;;;;;;5032069;28;20120;-83
2023/08/11 11:04:03;;;;;;;3.15;1.08;;;28.00;45.20;;;;;;5032924;28;20021;-84
2023/08/11 11:06:30;;;;;;;1.92;1.10;;;28.10;44.30;;;;;;5031802;28;20060;-84
2023/08/11 11:08:55;;;;;;;2.75;1.65;;;28.10;44.60;;;;;;5032402;28;20049;-85
2023/08/11 11:11:21;;;;;;;3.90;1.55;;;28.10;44.10;;;;;;5032234;28;20025;-85
2023/08/11 11:13:47;;;;;;;2.20;1.20;;;28.00;41.90;;;;;;5031905;28;20056;-85
2023/08/11 11:16:13;;;;;;;1.75;1.00;;;27.80;43.40;;;;;;5033113;28;20037;-85
2023/08/11 11:18:42;;;;;;;3.03;1.00;;;27.70;41.40;;;;;;5033555;28;20486;-85
2023/08/11 11:21:11;;;;;;;3.10;1.75;;;27.40;42.00;;;;;;5033435;28;20494;-85
2023/08/11 11:23:37;;;;;;;3.13;1.30;;;27.00;43.10;;;;;;5033699;28;20029;-85
2023/08/11 11:26:02;;;;;;;3.53;1.88;;;26.90;44.60;;;;;;5032814;28;20083;-84
2023/08/11 11:28:28;;;;;;;2.30;1.02;;;26.70;44.70;;;;;;5048452;28;20017;-84
2023/08/11 11:30:54;;;;;;;3.55;1.52;;;26.90;44.90;;;;;;5032364;28;20029;-84
2023/08/11 11:33:22;;;;;;;2.40;1.10;;;27.20;45.90;;;;;;5032464;28;20029;-86
2023/08/11 11:35:48;;;;;;;2.00;1.13;;;27.50;44.40;;;;;;5032255;28;20658;-84
2023/08/11 11:38:14;;;;;;;1.63;0.85;;;27.70;43.70;;;;;;5031375;28;20029;-86
2023/08/11 11:40:40;;;;;;;1.77;1.00;;;28.00;43.50;;;;;;5032977;28;20087;-86
2023/08/11 11:43:06;;;;;;;1.80;0.90;;;28.10;42.70;;;;;;5033104;28;20029;-84
2023/08/11 11:45:32;;;;;;;2.97;1.50;;;28.20;40.60;;;;;;5048132;28;20032;-86
2023/08/11 11:47:58;;;;;;;1.63;1.10;;;28.30;41.30;;;;;;5031117;28;20057;-86
2023/08/11 11:50:25;;;;;;;2.28;1.20;;;28.30;42.10;;;;;;5030129;28;20479;-84
2023/08/11 11:52:53;;;;;;;1.90;1.15;;;28.40;42.30;;;;;;5031322;28;20109;-83
2023/08/11 11:55:19;;;;;;;1.65;0.77;;;28.60;42.00;;;;;;5030777;28;20028;-86
2023/08/11 11:57:44;;;;;;;3.28;0.95;;;28.60;39.30;;;;;;5032622;28;20037;-84
2023/08/11 12:00:16;;;;;;;2.08;0.70;;;28.50;41.20;;;;;;5030433;28;20033;-83
2023/08/11 12:02:43;;;;;;;4.90;0.90;;;28.60;42.50;;;;;;5032181;28;20025;-86
2023/08/11 12:05:09;;;;;;;2.63;1.02;;;28.70;41.20;;;;;;5037390;28;20018;-87
2023/08/11 12:07:36;;;;;;;3.17;1.20;;;28.80;42.10;;;;;;5032790;28;20025;-86
2023/08/11 12:10:04;;;;;;;3.38;1.27;;;28.80;40.70;;;;;;5031823;28;20120;-86
2023/08/11 12:12:30;;;;;;;5.20;1.10;;;28.60;40.10;;;;;;5032589;28;20037;-82
2023/08/11 12:15:07;;;;;;;3.20;1.05;;;28.20;40.90;;;;;;5031821;28;20025;-84
2023/08/11 12:17:34;;;;;;;3.05;1.20;;;28.00;42.10;;;;;;5031541;28;20502;-83
2023/08/11 12:20:04;;;;;;;1.73;1.15;;;27.90;41.10;;;;;;5032223;28;20079;-82
2023/08/11 12:22:30;;;;;;;1.48;1.00;;;27.40;41.50;;;;;;5032100;28;20036;-84
2023/08/11 12:24:56;;;;;;;3.60;1.40;;;27.10;42.20;;;;;;5032278;28;20022;-84
2023/08/11 12:27:22;;;;;;;1.98;1.05;;;26.90;42.10;;;;;;5032238;28;20027;-84
2023/08/11 12:29:47;;;;;;;1.55;1.00;;;26.50;42.40;;;;;;5032238;28;20395;-84
2023/08/11 12:32:13;;;;;;;2.83;1.33;;;26.20;44.10;;;;;;5031361;28;20025;-83
2023/08/11 12:34:39;;;;;;;3.45;1.17;;;25.90;44.90;;;;;;5031951;28;20053;-86
2023/08/11 12:37:06;;;;;;;2.58;1.23;;;25.80;44.90;;;;;;5029963;28;20052;-86
2023/08/11 12:39:31;;;;;;;2.97;1.30;;;25.70;45.70;;;;;;5031844;28;20029;-86
2023/08/11 12:41:57;;;;;;;1.80;1.17;;;25.60;44.50;;;;;;5030980;28;20033;-86
2023/08/11 12:44:23;;;;;;;2.92;1.10;;;25.50;45.80;;;;;;5047255;28;20508;-87
2023/08/11 12:46:49;;;;;;;2.65;1.10;;;25.60;45.40;;;;;;5031555;28;20033;-86
2023/08/11 12:49:14;;;;;;;2.40;1.27;;;25.70;46.10;;;;;;5031526;28;20474;-83
2023/08/11 12:51:40;;;;;;;1.40;0.90;;;26.00;46.40;;;;;;5030319;28;20029;-84